Time;durP1;ratioP1;P1;durP2;ratioP2;P2;SDS_P1;SDS_P2;PMS_P1;PMS_P2;Temp;Humidity;BMP_temperature;BMP_pressure;BME280_temperature;BME280_humidity;BME280_pressure;Samples;Min_cycle;Max_cycle;Signal;HPM_P1;HPM_P2
2023/01/20 00:01:38;;;;;;;45.83;24.18;;;;;;;5.51;87.98;100494.80;1783459;80;21222;-84
2023/01/20 00:04:43;;;;;;;41.40;22.32;;;;;;;5.41;87.90;100500.20;1783385;80;21221;-84
2023/01/20 00:07:49;;;;;;;46.13;24.63;;;;;;;5.42;87.94;100498.34;1783392;80;21747;-79
2023/01/20 00:10:54;;;;;;;41.18;22.87;;;;;;;5.33;88.56;100492.74;1783365;80;21198;-79
2023/01/20 00:14:06;;;;;;;52.70;26.97;;;;;;;5.26;88.97;100499.70;1783533;80;21155;-84
2023/01/20 00:17:11;;;;;;;125.05;52.10;;;;;;;5.10;89.19;100493.45;1783369;80;21766;-85
2023/01/20 00:20:17;;;;;;;74.40;35.80;;;;;;;5.00;89.63;100488.48;1783339;80;21190;-79
2023/01/20 00:23:22;;;;;;;51.70;28.00;;;;;;;4.90;89.95;100484.03;1783435;80;21210;-81
2023/01/20 00:26:31;;;;;;;50.35;25.27;;;;;;;4.92;89.86;100490.16;1783303;80;21275;-79
2023/01/20 00:29:37;;;;;;;50.08;25.72;;;;;;;4.94;89.75;100494.46;1783422;80;21230;-84
2023/01/20 00:32:37;;;;;;;49.73;27.77;;;;;;;4.95;89.92;100489.39;1783681;80;21206;-79
2023/01/20 00:35:44;;;;;;;52.93;26.30;;;;;;;4.95;89.81;100485.33;1783304;80;21146;-79
2023/01/20 00:38:50;;;;;;;61.02;32.65;;;;;;;4.88;89.92;100490.41;1782067;80;21198;-84
2023/01/20 00:41:55;;;;;;;65.52;30.65;;;;;;;4.93;89.62;100491.86;1783372;80;21198;-84
2023/01/20 00:45:00;;;;;;;51.98;26.80;;;;;;;4.94;89.22;100492.22;1783295;80;21206;-79
2023/01/20 00:48:06;;;;;;;46.53;27.05;;;;;;;4.92;89.09;100488.30;1783329;80;21229;-85
2023/01/20 00:51:12;;;;;;;46.60;26.02;;;;;;;4.82;89.43;100492.32;1783344;80;21787;-79
2023/01/20 00:54:17;;;;;;;48.13;26.57;;;;;;;4.81;89.36;100491.97;1783394;80;21712;-80
2023/01/20 00:57:23;;;;;;;46.15;26.25;;;;;;;5.00;88.71;100492.55;1783475;80;21190;-84
2023/01/20 01:00:29;;;;;;;49.38;27.82;;;;;;;4.87;88.69;100478.36;1783394;80;21699;-85
2023/01/20 01:03:34;;;;;;;56.68;28.95;;;;;;;4.86;88.62;100484.78;1783389;80;21202;-79
2023/01/20 01:06:41;;;;;;;61.95;31.23;;;;;;;4.91;87.87;100473.53;1783412;80;21194;-79
2023/01/20 01:09:46;;;;;;;72.58;36.80;;;;;;;4.93;87.69;100471.03;1783397;80;21229;-84
2023/01/20 01:12:52;;;;;;;71.47;36.98;;;;;;;4.82;88.15;100470.64;1783312;80;21198;-79
2023/01/20 01:15:57;;;;;;;77.47;36.85;;;;;;;4.78;88.20;100470.55;1783472;80;21210;-80
2023/01/20 01:19:02;;;;;;;73.70;36.53;;;;;;;4.86;87.81;100463.95;1783343;80;21158;-79
2023/01/20 01:22:07;;;;;;;66.35;35.45;;;;;;;4.91;87.14;100464.05;1783328;80;21209;-84
2023/01/20 01:25:14;;;;;;;67.35;34.50;;;;;;;4.79;87.21;100463.27;1783325;80;21194;-79
2023/01/20 01:28:13;;;;;;;87.88;40.52;;;;;;;4.74;87.28;100463.67;1783397;80;21190;-79
2023/01/20 01:31:20;;;;;;;97.78;41.65;;;;;;;4.76;87.16;100460.34;1783424;80;21194;-80
2023/01/20 01:34:25;;;;;;;79.62;35.58;;;;;;;4.88;86.45;100460.59;1783405;80;21138;-84
2023/01/20 01:37:31;;;;;;;100.02;47.35;;;;;;;4.84;86.19;100456.94;1782698;80;21201;-84
2023/01/20 01:40:38;;;;;;;120.57;53.05;;;;;;;4.81;86.00;100450.45;1782447;80;21210;-84
2023/01/20 01:43:46;;;;;;;79.97;40.05;;;;;;;4.74;86.25;100454.69;1783300;80;21158;-82
2023/01/20 01:46:52;;;;;;;89.80;40.33;;;;;;;4.78;86.19;100462.41;1783123;80;21210;-84
2023/01/20 01:49:57;;;;;;;86.57;41.08;;;;;;;4.75;86.18;100460.46;1783064;80;21257;-84
2023/01/20 01:53:03;;;;;;;78.92;40.78;;;;;;;4.68;86.21;100461.52;1782275;80;21750;-79
2023/01/20 01:56:09;;;;;;;88.92;41.35;;;;;;;4.83;85.74;100460.16;1781837;80;21146;-84
2023/01/20 01:59:14;;;;;;;89.70;41.85;;;;;;;4.76;85.24;100456.28;1781834;80;21171;-84
2023/01/20 02:02:20;;;;;;;100.10;43.28;;;;;;;4.71;85.49;100443.64;1781821;80;21210;-79
2023/01/20 02:05:26;;;;;;;89.60;42.35;;;;;;;4.71;85.40;100441.43;1782189;80;21748;-84
2023/01/20 02:08:32;;;;;;;99.97;43.75;;;;;;;4.71;85.15;100441.43;1781837;80;21226;-79
2023/01/20 02:11:40;;;;;;;101.62;46.65;;;;;;;4.71;85.11;100449.06;1782586;80;21166;-84
2023/01/20 02:14:48;;;;;;;112.65;48.78;;;;;;;4.68;85.15;100449.82;1764199;80;21163;-79
2023/01/20 02:18:06;;;;;;;117.93;49.98;;;;;;;4.62;85.30;100447.16;1783423;80;21198;-84
2023/01/20 02:21:45;;;;;;;113.35;49.65;;;;;;;4.67;84.87;100446.25;1783418;80;21198;-79
2023/01/20 02:25:17;;;;;;;109.75;47.50;;;;;;;4.61;85.01;100449.48;1783572;80;21154;-83
2023/01/20 02:28:53;;;;;;;108.22;45.75;;;;;;;4.67;84.61;100457.59;1751138;80;21186;-81
2023/01/20 02:32:28;;;;;;;110.95;48.42;;;;;;;4.74;84.48;100467.73;1783147;80;21731;-83
2023/01/20 02:36:03;;;;;;;137.72;53.80;;;;;;;4.62;84.80;100476.97;1783382;80;21187;-84
2023/01/20 02:39:18;;;;;;;141.57;56.02;;;;;;;4.78;84.60;100475.11;1783452;80;21720;-84
2023/01/20 02:42:47;;;;;;;149.32;56.02;;;;;;;4.74;84.26;100469.09;1782098;80;21166;-84
2023/01/20 02:46:00;;;;;;;148.53;59.88;;;;;;;4.92;84.02;100464.41;1783504;80;21755;-79
2023/01/20 02:49:31;;;;;;;157.25;61.50;;;;;;;4.91;83.44;100462.70;1783496;80;21141;-80
2023/01/20 02:52:41;;;;;;;147.17;53.52;;;;;;;4.92;83.12;100468.47;1773095;80;21210;-79
2023/01/20 02:55:49;;;;;;;120.47;48.28;;;;;;;4.97;82.77;100464.84;1770181;81;21674;-84
2023/01/20 02:58:55;;;;;;;110.28;48.83;;;;;;;4.93;82.62;100467.47;1783565;80;21170;-79
2023/01/20 03:02:21;;;;;;;117.03;50.28;;;;;;;5.13;82.05;100465.22;1782265;80;21225;-84
2023/01/20 03:05:29;;;;;;;105.30;43.33;;;;;;;4.65;83.60;100462.27;1783440;80;21193;-84
2023/01/20 03:08:36;;;;;;;103.60;42.60;;;;;;;4.41;83.71;100467.48;1783424;80;21798;-80
2023/01/20 03:11:41;;;;;;;96.28;42.38;;;;;;;4.39;84.50;100461.85;1783331;80;21186;-84
2023/01/20 03:14:46;;;;;;;100.38;41.13;;;;;;;4.52;84.16;100466.07;1783501;80;21213;-84
2023/01/20 03:17:52;;;;;;;83.30;36.70;;;;;;;4.56;83.89;100467.99;1783368;80;21182;-84
2023/01/20 03:20:58;;;;;;;83.67;37.05;;;;;;;4.51;83.36;100466.19;1783470;80;21158;-79
2023/01/20 03:24:07;;;;;;;76.25;34.65;;;;;;;4.49;83.29;100463.62;1783512;80;21719;-85
2023/01/20 03:27:13;;;;;;;84.83;38.80;;;;;;;4.59;82.92;100463.67;1783441;80;21765;-84
2023/01/20 03:30:24;;;;;;;92.30;41.42;;;;;;;4.58;82.52;100455.19;1783441;80;21158;-79
2023/01/20 03:33:29;;;;;;;107.05;42.70;;;;;;;4.51;82.76;100457.55;1783396;80;21511;-84
2023/01/20 03:36:36;;;;;;;115.32;48.75;;;;;;;4.49;82.70;100461.41;1787545;80;21450;-85
2023/01/20 03:39:42;;;;;;;113.32;46.90;;;;;;;4.41;82.87;100458.50;1787822;78;21210;-84
2023/01/20 03:42:59;;;;;;;101.27;44.10;;;;;;;4.47;82.77;100466.08;1786144;77;21229;-84
2023/01/20 03:46:12;;;;;;;85.32;37.90;;;;;;;4.44;82.30;100465.02;1783370;80;21139;-84
2023/01/20 03:49:25;;;;;;;77.75;36.77;;;;;;;4.45;82.06;100465.38;1783395;80;21711;-80
2023/01/20 03:52:38;;;;;;;56.25;27.70;;;;;;;4.58;81.34;100473.66;1783227;80;21206;-79
2023/01/20 03:56:14;;;;;;;51.35;26.15;;;;;;;4.49;81.33;100465.47;1783442;80;21158;-80
2023/01/20 03:59:20;;;;;;;54.30;26.68;;;;;;;4.51;81.16;100464.83;1783414;80;21175;-79
2023/01/20 04:02:25;;;;;;;64.40;32.28;;;;;;;4.30;81.79;100480.61;1783547;80;21355;-80
2023/01/20 04:05:31;;;;;;;57.93;30.02;;;;;;;4.39;81.79;100475.39;1783446;80;21158;-80
2023/01/20 04:08:39;;;;;;;57.30;28.80;;;;;;;4.58;80.52;100477.72;1763514;80;21731;-84
2023/01/20 04:11:45;;;;;;;53.15;27.22;;;;;;;4.55;80.89;100478.47;1783447;80;21213;-80
2023/01/20 04:14:52;;;;;;;60.10;31.48;;;;;;;3.97;82.14;100472.66;1783427;80;21154;-80
2023/01/20 04:17:56;;;;;;;56.23;31.02;;;;;;;3.90;83.11;100470.95;1783357;80;21222;-84
2023/01/20 04:20:59;;;;;;;45.75;25.43;;;;;;;3.92;83.01;100479.81;1783363;80;21798;-84
2023/01/20 04:24:26;;;;;;;48.65;25.92;;;;;;;3.92;82.92;100478.95;1783332;80;21221;-84
2023/01/20 04:27:26;;;;;;;50.12;26.33;;;;;;;3.89;82.92;100481.91;1783430;80;21238;-85
2023/01/20 04:30:32;;;;;;;59.88;30.90;;;;;;;3.99;82.13;100485.05;1781759;80;21171;-84
2023/01/20 04:33:38;;;;;;;57.93;29.92;;;;;;;3.91;82.61;100482.66;1781734;80;21218;-84
2023/01/20 04:36:43;;;;;;;50.12;27.42;;;;;;;3.87;82.78;100487.47;1783122;80;21234;-80
2023/01/20 04:39:50;;;;;;;46.42;26.12;;;;;;;3.44;84.54;100496.95;1783330;80;21206;-84
2023/01/20 04:42:56;;;;;;;45.88;23.98;;;;;;;3.84;83.54;100502.09;1782029;80;21247;-84
2023/01/20 04:46:02;;;;;;;47.78;24.27;;;;;;;3.90;83.04;100509.33;1782690;80;21166;-86
2023/01/20 04:49:09;;;;;;;42.90;23.47;;;;;;;4.04;82.45;100510.38;1782655;80;21182;-84
2023/01/20 04:52:14;;;;;;;43.78;22.07;;;;;;;3.79;83.19;100521.06;1782164;80;21225;-80
2023/01/20 04:55:20;;;;;;;45.40;22.70;;;;;;;3.88;83.20;100524.86;1782676;80;21182;-85
2023/01/20 04:58:26;;;;;;;48.13;24.20;;;;;;;3.76;82.96;100524.87;1781375;80;21182;-80
2023/01/20 05:01:30;;;;;;;49.18;23.65;;;;;;;3.69;82.90;100526.38;1782623;80;21205;-86
2023/01/20 05:04:22;;;;;;;47.38;24.18;;;;;;;3.64;83.42;100523.70;1781280;80;21181;-84
2023/01/20 05:07:28;;;;;;;47.70;25.95;;;;;;;3.68;83.03;100524.67;1782128;80;21186;-78
2023/01/20 05:10:34;;;;;;;51.45;28.65;;;;;;;3.74;82.99;100528.20;1782805;80;21171;-82
2023/01/20 05:13:39;;;;;;;53.95;26.87;;;;;;;3.73;82.98;100526.50;1781329;80;21213;-79
2023/01/20 05:16:46;;;;;;;48.10;25.43;;;;;;;3.71;82.77;100525.75;1782653;80;21730;-85
2023/01/20 05:19:51;;;;;;;47.55;23.65;;;;;;;3.56;83.21;100527.88;1782829;80;21206;-85
2023/01/20 05:22:57;;;;;;;45.05;24.25;;;;;;;3.65;83.11;100527.62;1781800;80;21198;-80
2023/01/20 05:26:01;;;;;;;49.25;25.17;;;;;;;3.68;83.20;100524.67;1782800;80;21138;-80
2023/01/20 05:29:08;;;;;;;54.83;24.45;;;;;;;3.74;82.91;100526.00;1782945;80;21167;-85
2023/01/20 05:32:14;;;;;;;48.92;25.57;;;;;;;3.74;82.92;100520.09;1782324;80;21206;-80
2023/01/20 05:35:20;;;;;;;49.45;25.23;;;;;;;3.59;83.10;100520.02;1781288;80;21505;-86
2023/01/20 05:38:26;;;;;;;48.28;24.18;;;;;;;3.56;83.26;100520.26;1782694;80;21163;-86
2023/01/20 05:41:32;;;;;;;58.78;30.80;;;;;;;3.51;83.42;100526.54;1757856;80;21144;-85
2023/01/20 05:44:37;;;;;;;57.83;26.25;;;;;;;3.50;83.64;100519.42;1783192;80;21576;-80
2023/01/20 05:47:43;;;;;;;57.27;24.70;;;;;;;3.55;83.36;100523.95;1784939;80;21196;-83
2023/01/20 05:50:48;;;;;;;52.13;25.55;;;;;;;3.64;83.06;100521.84;1782634;79;21732;-86
2023/01/20 05:53:55;;;;;;;47.13;23.80;;;;;;;3.54;83.12;100523.10;1784453;79;21186;-84
2023/01/20 05:56:59;;;;;;;44.63;23.87;;;;;;;3.56;83.28;100518.91;1779623;80;21833;-79
2023/01/20 06:00:05;;;;;;;54.85;25.55;;;;;;;3.75;82.88;100520.45;1780567;79;21160;-83
2023/01/20 06:03:11;;;;;;;49.83;24.47;;;;;;;3.90;81.71;100529.13;1775533;79;21198;-84
2023/01/20 06:06:17;;;;;;;47.38;24.52;;;;;;;3.94;81.75;100537.36;1760662;81;21816;-79
2023/01/20 06:09:23;;;;;;;52.90;25.80;;;;;;;3.88;81.92;100539.73;1758901;79;21799;-80
2023/01/20 06:12:29;;;;;;;49.25;26.15;;;;;;;3.78;82.09;100539.14;1760396;79;21170;-80
2023/01/20 06:15:35;;;;;;;53.78;26.40;;;;;;;3.61;82.93;100543.73;1758102;79;21144;-79
2023/01/20 06:18:41;;;;;;;53.05;26.48;;;;;;;3.58;83.34;100554.82;1760953;79;21748;-79
2023/01/20 06:21:47;;;;;;;50.63;26.70;;;;;;;3.80;82.67;100551.19;1755305;79;21244;-85
2023/01/20 06:24:53;;;;;;;60.52;26.62;;;;;;;3.94;82.07;100555.45;1758170;79;21189;-79
2023/01/20 06:27:59;;;;;;;52.70;27.17;;;;;;;3.92;81.85;100548.83;1753626;79;21199;-78
2023/01/20 06:31:10;;;;;;;52.53;27.25;;;;;;;3.90;81.73;100550.78;1757300;79;21189;-80
2023/01/20 06:34:16;;;;;;;56.92;27.67;;;;;;;3.87;81.82;100554.27;1752397;79;72357;-79
2023/01/20 06:37:22;;;;;;;59.35;27.95;;;;;;;3.91;81.76;100557.09;1755569;79;21203;-84
2023/01/20 06:40:28;;;;;;;54.10;26.57;;;;;;;4.09;81.11;100566.34;1754506;79;21210;-86
2023/01/20 06:43:38;;;;;;;56.60;28.67;;;;;;;4.29;80.21;100558.78;1764806;80;21758;-86
2023/01/20 06:46:43;;;;;;;59.08;28.07;;;;;;;4.49;79.11;100557.08;1757090;79;21733;-86
2023/01/20 06:49:51;;;;;;;60.20;28.90;;;;;;;4.48;78.64;100559.92;1756702;80;21186;-84
2023/01/20 06:52:57;;;;;;;50.17;25.72;;;;;;;4.47;78.48;100555.47;1759507;80;21150;-85
2023/01/20 06:56:05;;;;;;;59.93;27.80;;;;;;;4.36;78.61;100557.25;1754433;80;22070;-84
2023/01/20 06:59:10;;;;;;;53.23;27.82;;;;;;;4.20;78.81;100550.08;1760165;80;21145;-85
2023/01/20 07:02:19;;;;;;;56.23;28.98;;;;;;;4.26;78.79;100554.97;1753922;80;21567;-78
2023/01/20 07:05:26;;;;;;;59.58;29.30;;;;;;;4.27;78.67;100555.33;1756857;80;21721;-84
2023/01/20 07:08:31;;;;;;;51.48;27.10;;;;;;;4.19;79.06;100556.95;1754720;80;21196;-85
2023/01/20 07:11:30;;;;;;;60.17;29.02;;;;;;;4.24;78.95;100554.25;1754886;80;21193;-85
2023/01/20 07:14:22;;;;;;;57.95;29.45;;;;;;;4.23;78.57;100559.77;1753424;80;21896;-79
2023/01/20 07:17:27;;;;;;;60.48;28.67;;;;;;;4.46;78.21;100568.66;1753970;80;21218;-79
2023/01/20 07:20:26;;;;;;;52.13;28.67;;;;;;;4.13;78.93;100566.46;1760467;80;21149;-79
2023/01/20 07:23:32;;;;;;;56.30;26.90;;;;;;;4.29;78.78;100566.91;1725052;82;21178;-79
2023/01/20 07:26:37;;;;;;;50.05;27.50;;;;;;;4.39;78.31;100562.91;1720506;82;21281;-79
2023/01/20 07:29:43;;;;;;;59.73;28.40;;;;;;;4.47;77.86;100570.38;1721574;82;21210;-79
2023/01/20 07:32:49;;;;;;;53.17;27.65;;;;;;;4.13;78.67;100571.88;1721039;82;21818;-79
2023/01/20 07:36:00;;;;;;;56.10;28.12;;;;;;;4.09;79.18;100568.59;1720521;82;32452;-80
2023/01/20 07:39:04;;;;;;;60.63;31.02;;;;;;;4.13;79.46;100571.88;1754035;80;21175;-79
2023/01/20 07:42:09;;;;;;;66.60;30.50;;;;;;;4.14;79.38;100569.55;1755401;80;21179;-79
2023/01/20 07:45:15;;;;;;;54.63;29.90;;;;;;;4.14;79.42;100575.44;1740054;81;21740;-79
2023/01/20 07:48:20;;;;;;;53.17;27.93;;;;;;;4.17;79.64;100576.05;1746642;80;21795;-80
2023/01/20 07:51:26;;;;;;;57.53;28.80;;;;;;;4.36;79.16;100572.15;1756683;80;21176;-80
2023/01/20 07:54:32;;;;;;;58.63;28.52;;;;;;;4.42;78.89;100573.97;1758928;80;21528;-80
2023/01/20 07:57:38;;;;;;;58.38;29.20;;;;;;;4.43;78.96;100574.36;1751801;80;21176;-85
2023/01/20 08:00:47;;;;;;;52.85;28.92;;;;;;;4.77;77.98;100573.67;1803700;77;21107;-85
2023/01/20 08:03:54;;;;;;;62.73;28.92;;;;;;;4.74;77.45;100573.42;1800203;77;21678;-85
2023/01/20 08:06:59;;;;;;;55.88;29.63;;;;;;;4.79;77.34;100575.23;1809344;77;22018;-84
2023/01/20 08:10:04;;;;;;;52.65;27.50;;;;;;;4.85;77.03;100569.31;1802798;77;21159;-85
2023/01/20 08:13:10;;;;;;;53.80;28.02;;;;;;;5.25;75.66;100568.51;1805748;77;21194;-86
2023/01/20 08:16:17;;;;;;;53.20;27.42;;;;;;;5.38;74.88;100574.56;1805502;77;21160;-85
2023/01/20 08:19:22;;;;;;;56.30;29.82;;;;;;;5.46;74.88;100569.83;1805201;77;21828;-86
2023/01/20 08:22:28;;;;;;;54.33;30.62;;;;;;;5.56;74.33;100563.92;1806863;77;21211;-86
2023/01/20 08:25:33;;;;;;;50.73;28.57;;;;;;;5.55;74.05;100566.76;1814021;77;22167;-86
2023/01/20 08:28:39;;;;;;;49.55;28.00;;;;;;;5.67;74.00;100571.09;1790644;77;21264;-84
2023/01/20 08:31:46;;;;;;;63.25;29.05;;;;;;;5.84;73.50;100562.79;1813079;77;21140;-85
2023/01/20 08:34:52;;;;;;;55.25;27.93;;;;;;;5.81;73.49;100564.42;1803940;77;39497;-84
2023/01/20 08:37:57;;;;;;;53.20;29.30;;;;;;;5.58;74.07;100563.78;1807903;77;21162;-84
2023/01/20 08:41:03;;;;;;;53.50;28.00;;;;;;;5.61;74.85;100563.52;1804540;77;21170;-80
2023/01/20 08:44:10;;;;;;;55.78;28.07;;;;;;;5.56;75.11;100562.58;1801298;77;21154;-80
2023/01/20 08:47:15;;;;;;;54.93;29.90;;;;;;;5.61;74.85;100549.95;1806452;77;21582;-86
2023/01/20 08:50:22;;;;;;;59.67;27.82;;;;;;;5.70;74.55;100546.91;1816153;77;21215;-79
2023/01/20 08:53:21;;;;;;;56.18;28.47;;;;;;;5.73;73.58;100552.89;1817153;77;21255;-80
2023/01/20 08:56:27;;;;;;;67.45;28.38;;;;;;;5.75;73.81;100550.05;1812773;77;21178;-85
2023/01/20 08:59:33;;;;;;;56.10;29.18;;;;;;;5.83;73.62;100544.77;1818151;77;21775;-84
2023/01/20 09:02:39;;;;;;;53.48;27.95;;;;;;;6.07;72.73;100543.03;1821741;77;21182;-85
2023/01/20 09:05:45;;;;;;;57.10;29.77;;;;;;;6.10;72.75;100539.55;1817327;77;21144;-85
2023/01/20 09:08:52;;;;;;;49.80;27.58;;;;;;;6.02;72.57;100542.14;1829243;77;21530;-84
2023/01/20 09:11:57;;;;;;;51.75;28.95;;;;;;;6.13;72.12;100530.27;1824102;77;21136;-86
2023/01/20 09:15:06;;;;;;;57.55;28.83;;;;;;;6.13;71.88;100528.91;1816286;77;21128;-85
2023/01/20 09:18:12;;;;;;;51.02;27.10;;;;;;;6.02;72.49;100527.20;1812377;77;21150;-85
2023/01/20 09:21:19;;;;;;;49.45;26.37;;;;;;;5.99;72.39;100515.76;1818637;77;21151;-85
2023/01/20 09:24:24;;;;;;;46.75;26.40;;;;;;;6.38;71.14;100516.09;1813175;77;21205;-79
2023/01/20 09:27:30;;;;;;;51.80;27.30;;;;;;;6.29;70.93;100503.38;1813678;77;21803;-79
2023/01/20 09:30:35;;;;;;;50.33;26.30;;;;;;;6.22;71.01;100503.61;1810854;77;21457;-85
2023/01/20 09:33:44;;;;;;;47.83;26.75;;;;;;;6.39;71.03;100510.16;1809039;77;21175;-86
2023/01/20 09:36:51;;;;;;;53.90;26.62;;;;;;;6.48;70.44;100509.80;1812569;77;21198;-86
2023/01/20 09:43:55;;;;;;;48.40;27.05;;;;;;;6.62;69.86;100486.23;1812406;77;21181;-79
2023/01/20 09:47:48;;;;;;;52.35;26.60;;;;;;;6.76;68.40;100489.00;1807555;77;21176;-79
2023/01/20 09:54:33;;;;;;;45.15;26.82;;;;;;;6.89;69.23;100488.17;1815518;77;21172;-79
2023/01/20 09:57:42;;;;;;;55.63;27.67;;;;;;;6.89;69.23;100488.17;1814955;77;21293;-80
2023/01/20 10:00:49;;;;;;;51.53;28.57;;;;;;;7.09;68.19;100488.95;1817639;77;21155;-79
2023/01/20 10:04:17;;;;;;;48.78;27.87;;;;;;;7.08;68.56;100473.64;1817377;77;21771;-79
2023/01/20 10:07:41;;;;;;;48.58;28.38;;;;;;;7.03;69.18;100476.81;1819917;77;21151;-79
2023/01/20 10:11:17;;;;;;;51.92;30.37;;;;;;;7.11;70.25;100470.64;1817848;77;21176;-79
2023/01/20 10:15:16;;;;;;;51.42;28.17;;;;;;;7.09;70.52;100464.47;1821067;77;21160;-80
2023/01/20 10:18:28;;;;;;;49.08;28.87;;;;;;;7.04;70.59;100459.48;1818941;77;21156;-85
2023/01/20 10:21:43;;;;;;;51.42;27.67;;;;;;;7.14;70.46;100454.00;1826489;77;21763;-85
2023/01/20 10:24:57;;;;;;;51.65;28.00;;;;;;;7.30;70.09;100452.85;1811744;77;21214;-84
2023/01/20 10:28:11;;;;;;;49.45;26.90;;;;;;;7.31;70.38;100451.84;1824296;77;21181;-85
2023/01/20 10:31:17;;;;;;;45.33;26.48;;;;;;;7.38;70.69;100444.76;1814187;77;21137;-86
2023/01/20 10:34:26;;;;;;;51.50;27.65;;;;;;;7.35;71.13;100441.01;1805966;77;110930;-86
2023/01/20 10:37:35;;;;;;;46.35;26.17;;;;;;;7.53;71.81;100436.08;1765364;78;21228;-86
2023/01/20 10:41:03;;;;;;;47.10;27.15;;;;;;;7.49;70.85;100429.25;1745481;80;21163;-85
2023/01/20 10:44:18;;;;;;;45.85;26.17;;;;;;;7.60;71.47;100423.58;1756611;81;21244;-85
2023/01/20 10:47:46;;;;;;;50.48;26.62;;;;;;;7.79;71.58;100411.17;1755292;81;21814;-84
2023/01/20 10:51:17;;;;;;;42.60;25.57;;;;;;;8.03;70.30;100406.44;1745015;81;21803;-86
2023/01/20 10:54:51;;;;;;;52.62;27.87;;;;;;;7.96;70.07;100405.89;1742228;82;21637;-86
2023/01/20 10:58:04;;;;;;;47.60;26.82;;;;;;;7.92;69.98;100413.00;1740705;81;21239;-81
2023/01/20 11:01:12;;;;;;;43.42;24.23;;;;;;;7.89;70.25;100410.58;1742870;82;21181;-85
2023/01/20 11:04:25;;;;;;;51.08;24.45;;;;;;;8.04;69.41;100405.93;1719433;82;21204;-85
2023/01/20 11:07:23;;;;;;;44.53;25.68;;;;;;;8.07;70.69;100408.35;1742300;81;21187;-81
2023/01/20 11:10:27;;;;;;;40.67;26.05;;;;;;;7.98;71.33;100407.93;1730764;82;21194;-81
2023/01/20 11:13:35;;;;;;;49.05;24.57;;;;;;;8.13;70.41;100399.54;1741539;81;21206;-79
2023/01/20 11:16:34;;;;;;;51.33;26.10;;;;;;;8.24;70.00;100399.81;1743917;82;21219;-80
2023/01/20 11:20:02;;;;;;;42.30;24.98;;;;;;;8.35;69.67;100404.98;1728079;82;21188;-85
2023/01/20 11:23:08;;;;;;;44.33;25.30;;;;;;;8.45;69.12;100398.95;1742313;81;21193;-80
2023/01/20 11:26:38;;;;;;;53.52;27.40;;;;;;;8.63;69.21;100397.53;1740311;82;21176;-86
2023/01/20 11:29:53;;;;;;;57.65;25.85;;;;;;;8.74;67.32;100405.42;1738400;81;21737;-80
2023/01/20 11:33:31;;;;;;;46.08;25.30;;;;;;;8.70;67.19;100401.31;1737560;81;21786;-80
2023/01/20 11:36:36;;;;;;;48.38;25.12;;;;;;;8.64;67.46;100398.73;1735898;81;21752;-81
2023/01/20 11:39:51;;;;;;;40.95;23.12;;;;;;;8.83;66.51;100386.73;1737296;82;21185;-85
2023/01/20 11:42:52;;;;;;;47.78;22.48;;;;;;;8.60;66.90;100402.79;1721665;82;21229;-85
2023/01/20 11:45:37;;;;;;;42.95;23.70;;;;;;;8.73;66.35;100397.42;1714977;82;21219;-85
2023/01/20 11:48:29;;;;;;;43.30;23.18;;;;;;;8.91;66.24;100392.22;1738119;81;21201;-85
2023/01/20 11:51:32;;;;;;;41.92;22.17;;;;;;;9.01;65.82;100379.82;1728166;81;21245;-86
2023/01/20 11:54:37;;;;;;;40.28;22.85;;;;;;;8.98;65.06;100382.86;1726425;81;21201;-79
2023/01/20 11:57:47;;;;;;;41.55;22.17;;;;;;;9.02;65.10;100381.52;1742650;81;21216;-84
2023/01/20 12:00:54;;;;;;;38.85;23.12;;;;;;;8.94;65.58;100382.36;1756028;81;21219;-85
2023/01/20 12:04:28;;;;;;;38.63;21.90;;;;;;;8.90;66.37;100382.34;1701390;81;21209;-80
2023/01/20 12:07:52;;;;;;;41.10;21.62;;;;;;;8.93;66.58;100381.99;1713716;81;21287;-85
2023/01/20 12:10:57;;;;;;;44.63;24.10;;;;;;;8.94;66.57;100386.45;1755191;81;21239;-85
2023/01/20 12:14:29;;;;;;;44.60;23.12;;;;;;;8.88;67.68;100388.96;1713336;83;21149;-80
2023/01/20 12:18:03;;;;;;;42.83;22.05;;;;;;;8.65;68.93;100390.03;1728046;82;21225;-80
2023/01/20 12:21:18;;;;;;;44.23;22.30;;;;;;;8.80;68.03;100391.16;1746626;80;21182;-79
2023/01/20 12:25:06;;;;;;;40.52;21.15;;;;;;;8.62;68.40;100384.92;1763722;80;21305;-79
2023/01/20 12:27:56;;;;;;;43.50;21.12;;;;;;;8.40;69.56;100382.23;1715245;83;21261;-84
2023/01/20 12:31:08;;;;;;;39.60;21.60;;;;;;;8.41;70.54;100386.14;1721950;81;21264;-86
2023/01/20 12:34:22;;;;;;;40.55;21.85;;;;;;;8.25;71.12;100379.72;1743442;80;21217;-81
2023/01/20 12:37:39;;;;;;;41.28;20.35;;;;;;;8.52;69.42;100381.47;1725841;83;21233;-85
2023/01/20 12:40:53;;;;;;;39.45;20.77;;;;;;;8.22;70.25;100382.23;1747033;80;21195;-81
2023/01/20 12:44:19;;;;;;;35.90;21.82;;;;;;;8.18;70.18;100374.03;1755406;81;21184;-82
2023/01/20 12:47:50;;;;;;;41.42;22.07;;;;;;;8.11;71.02;100365.65;1730688;81;21181;-83
2023/01/20 12:51:14;;;;;;;34.10;18.65;;;;;;;8.15;70.46;100373.01;1759546;80;21173;-84
2023/01/20 12:54:53;;;;;;;42.03;20.48;;;;;;;8.11;69.65;100368.89;1756008;80;21745;-79
2023/01/20 12:58:11;;;;;;;39.48;20.68;;;;;;;7.84;70.65;100373.43;1755632;81;21208;-78
2023/01/20 13:01:58;;;;;;;38.73;20.85;;;;;;;7.96;71.39;100375.92;1753341;80;21196;-79
2023/01/20 13:05:10;;;;;;;37.40;21.10;;;;;;;8.00;71.33;100382.73;1743649;80;21212;-83
2023/01/20 13:09:04;;;;;;;37.55;22.58;;;;;;;7.88;72.05;100373.98;1747771;81;21167;-78
2023/01/20 13:12:51;;;;;;;37.25;21.17;;;;;;;7.85;72.02;100386.02;1758582;81;21215;-78
2023/01/20 13:16:09;;;;;;;45.40;22.55;;;;;;;7.45;72.87;100374.77;1747742;80;21267;-84
2023/01/20 13:19:41;;;;;;;41.65;23.38;;;;;;;7.15;74.36;100388.58;1738254;80;21160;-85
2023/01/20 13:22:47;;;;;;;42.55;22.45;;;;;;;7.16;74.52;100380.77;1780817;79;21184;-80
2023/01/20 13:25:52;;;;;;;43.65;23.47;;;;;;;7.03;74.58;100375.33;1791069;80;21181;-80
2023/01/20 13:29:01;;;;;;;41.73;22.70;;;;;;;6.99;74.89;100369.33;1756604;80;21176;-85
2023/01/20 13:32:07;;;;;;;45.48;23.65;;;;;;;7.00;74.87;100367.46;1720124;81;21217;-81
2023/01/20 13:35:32;;;;;;;44.13;22.42;;;;;;;7.02;74.83;100365.47;1756103;80;21203;-80
2023/01/20 13:38:38;;;;;;;43.17;22.55;;;;;;;7.00;74.97;100362.87;1755638;81;21223;-85
2023/01/20 13:41:57;;;;;;;60.90;25.52;;;;;;;6.94;75.25;100373.52;1724719;81;21209;-80
2023/01/20 13:45:27;;;;;;;38.83;24.00;;;;;;;6.89;75.21;100365.30;1729587;81;21758;-79
2023/01/20 13:48:34;;;;;;;41.50;23.10;;;;;;;6.85;75.10;100364.40;1771161;80;21236;-84
2023/01/20 13:51:49;;;;;;;42.62;24.37;;;;;;;6.89;75.48;100359.02;1751214;81;21207;-80
2023/01/20 13:54:55;;;;;;;46.33;25.80;;;;;;;6.80;76.29;100373.52;1750277;80;21792;-85
2023/01/20 13:58:01;;;;;;;50.08;26.07;;;;;;;6.62;76.57;100382.95;1753218;81;21216;-79
2023/01/20 14:01:12;;;;;;;51.25;24.63;;;;;;;6.52;76.41;100387.58;1700022;82;21554;-85
2023/01/20 14:04:24;;;;;;;53.42;27.25;;;;;;;6.40;76.20;100379.62;1705298;82;21207;-84
2023/01/20 14:07:34;;;;;;;55.08;25.60;;;;;;;6.33;76.29;100383.91;1751618;81;21770;-85
2023/01/20 14:10:41;;;;;;;46.95;25.25;;;;;;;6.34;76.33;100376.61;1720631;81;21858;-80
2023/01/20 14:13:48;;;;;;;44.25;24.85;;;;;;;6.45;76.04;100388.69;1745937;81;21143;-79
2023/01/20 14:16:55;;;;;;;55.23;25.97;;;;;;;6.38;76.01;100391.62;1753957;81;22004;-80
2023/01/20 14:20:01;;;;;;;49.85;25.90;;;;;;;6.39;76.02;100384.67;1726812;83;21205;-85
2023/01/20 14:23:33;;;;;;;44.67;24.27;;;;;;;6.29;76.08;100377.05;1758218;81;21198;-85
2023/01/20 14:26:39;;;;;;;42.75;23.87;;;;;;;6.19;75.93;100381.66;1724641;82;21221;-80
2023/01/20 14:29:45;;;;;;;45.95;24.00;;;;;;;5.94;75.90;100374.14;1748249;81;21153;-85
2023/01/20 14:32:50;;;;;;;54.15;25.70;;;;;;;5.91;75.67;100369.81;1753019;81;21223;-79
2023/01/20 14:35:56;;;;;;;48.73;23.87;;;;;;;5.87;75.43;100366.52;1726467;83;21182;-83
2023/01/20 14:39:08;;;;;;;47.10;24.75;;;;;;;5.70;75.93;100365.92;1750338;81;21147;-84
2023/01/20 14:42:10;;;;;;;;;;;;;;;5.78;75.49;100368.75;1711615;81;21221;-85